Time;durP1;ratioP1;P1;durP2;ratioP2;P2;SDS_P1;SDS_P2;PMS_P1;PMS_P2;Temp;Humidity;BMP_temperature;BMP_pressure;BME280_temperature;BME280_humidity;BME280_pressure;Samples;Min_cycle;Max_cycle;Signal;HPM_P1;HPM_P2
2024/04/14 00:01:20;;;;;;;5.03;3.88;;;16.60;1.00;;;;;;5308084;27;20291;-79
2024/04/14 00:03:56;;;;;;;6.20;3.85;;;16.70;1.00;;;;;;5302911;26;20318;-79
2024/04/14 00:06:22;;;;;;;8.77;4.20;;;16.70;1.00;;;;;;5306642;26;20251;-78
2024/04/14 00:08:51;;;;;;;6.45;3.58;;;16.50;1.00;;;;;;5310695;26;20334;-80
2024/04/14 00:11:17;;;;;;;4.72;3.72;;;16.50;1.00;;;;;;5306685;27;20240;-80
2024/04/14 00:13:46;;;;;;;5.47;3.83;;;16.30;1.00;;;;;;5311738;27;20256;-79
2024/04/14 00:16:12;;;;;;;7.95;4.43;;;16.10;16.70;;;;;;5306664;27;20796;-80
2024/04/14 00:18:41;;;;;;;8.43;4.68;;;16.10;25.00;;;;;;5308450;26;20248;-78
2024/04/14 00:21:10;;;;;;;9.85;4.95;;;16.30;1.00;;;;;;5311138;27;20287;-79
2024/04/14 00:23:39;;;;;;;7.65;5.25;;;16.50;1.00;;;;;;5304195;27;20256;-78
2024/04/14 00:26:08;;;;;;;9.30;4.97;;;16.80;1.00;;;;;;5311043;27;20256;-79
2024/04/14 00:28:38;;;;;;;6.43;5.28;;;17.10;1.00;;;;;;5307482;27;20295;-80
2024/04/14 00:31:04;;;;;;;7.93;5.80;;;17.30;1.00;;;;;;5308405;26;20290;-79
2024/04/14 00:33:34;;;;;;;6.90;5.10;;;17.40;1.00;;;;;;5308799;26;20612;-78
2024/04/14 00:36:01;;;;;;;10.35;5.57;;;17.30;1.00;;;;;;5304493;26;20588;-78
2024/04/14 00:38:32;;;;;;;10.20;5.70;;;17.30;1.00;;;;;;5308943;27;20644;-78
2024/04/14 00:40:58;;;;;;;8.80;5.50;;;17.40;99.90;;;;;;5301361;27;20240;-78
2024/04/14 00:43:27;;;;;;;7.28;5.45;;;17.30;1.00;;;;;;5310440;27;20287;-78
2024/04/14 00:45:53;;;;;;;7.65;5.70;;;17.30;1.00;;;;;;5312309;26;20294;-78
2024/04/14 00:48:22;;;;;;;8.70;5.90;;;17.30;1.00;;;;;;5317674;26;20267;-79
2024/04/14 00:50:49;;;;;;;8.15;5.82;;;17.20;1.00;;;;;;5302864;26;20247;-79
2024/04/14 00:53:18;;;;;;;10.27;6.60;;;17.30;1.00;;;;;;5305891;26;20252;-77
2024/04/14 00:55:48;;;;;;;8.25;5.65;;;17.50;99.90;;;;;;5299740;26;20289;-77
2024/04/14 00:58:17;;;;;;;6.93;5.55;;;17.60;99.90;;;;;;5312517;26;20251;-81
2024/04/14 01:00:43;;;;;;;8.80;5.72;;;17.70;99.90;;;;;;5295050;26;20247;-78
2024/04/14 01:03:13;;;;;;;11.02;6.43;;;17.60;99.90;;;;;;5304329;27;20567;-78
2024/04/14 01:05:39;;;;;;;8.50;5.75;;;17.60;91.70;;;;;;5309463;27;20302;-79
2024/04/14 01:08:08;;;;;;;6.70;4.97;;;17.50;90.50;;;;;;5306580;27;20255;-78
2024/04/14 01:10:35;;;;;;;10.32;5.65;;;17.50;78.30;;;;;;5308003;26;20286;-78
2024/04/14 01:13:06;;;;;;;8.15;5.40;;;17.40;58.10;;;;;;5307490;27;20349;-78
2024/04/14 01:15:32;;;;;;;6.72;4.75;;;17.30;29.60;;;;;;5313870;27;20298;-78
2024/04/14 01:18:01;;;;;;;7.35;4.07;;;17.30;1.00;;;;;;5311819;27;20252;-79
2024/04/14 01:20:27;;;;;;;6.82;3.67;;;17.40;1.00;;;;;;5314389;27;20243;-79
2024/04/14 01:22:56;;;;;;;6.18;2.92;;;17.20;1.00;;;;;;5314110;27;20290;-78
2024/04/14 01:25:25;;;;;;;3.40;3.00;;;17.10;99.90;;;;;;5300435;26;20287;-78
2024/04/14 01:27:54;;;;;;;5.55;3.78;;;17.00;99.90;;;;;;5303530;27;20294;-77
2024/04/14 01:30:20;;;;;;;4.30;3.38;;;16.90;99.90;;;;;;5302603;27;20247;-78
2024/04/14 01:32:48;;;;;;;6.60;3.80;;;16.80;99.90;;;;;;5310549;26;20645;-78
2024/04/14 01:35:15;;;;;;;5.78;3.80;;;16.70;99.90;;;;;;5306672;27;20247;-76
2024/04/14 01:37:43;;;;;;;7.50;3.85;;;16.80;1.00;;;;;;5307279;27;20731;-77
2024/04/14 01:40:11;;;;;;;4.18;3.30;;;16.60;1.00;;;;;;5305742;27;20792;-77
2024/04/14 01:42:43;;;;;;;5.63;3.55;;;16.40;99.90;;;;;;5307621;26;20304;-78
2024/04/14 01:45:09;;;;;;;7.05;3.47;;;16.60;99.90;;;;;;5324284;26;20252;-77
2024/04/14 01:47:38;;;;;;;5.65;4.10;;;16.50;99.90;;;;;;5313219;27;20248;-78
2024/04/14 01:50:05;;;;;;;4.65;2.95;;;16.40;99.90;;;;;;5306896;27;20244;-80
2024/04/14 01:52:34;;;;;;;5.43;3.30;;;16.50;99.90;;;;;;5313758;26;20256;-77
2024/04/14 01:55:00;;;;;;;5.25;3.00;;;16.50;99.90;;;;;;5311643;26;20290;-79
2024/04/14 01:57:28;;;;;;;8.00;3.55;;;16.50;99.90;;;;;;5314578;26;20303;-79
2024/04/14 01:59:57;;;;;;;7.00;3.53;;;16.40;99.90;;;;;;5291541;27;20312;-78
2024/04/14 02:02:26;;;;;;;5.93;2.90;;;16.40;99.90;;;;;;5310715;27;20248;-78
2024/04/14 02:04:52;;;;;;;9.80;3.92;;;16.30;99.90;;;;;;5314324;27;20282;-77
2024/04/14 02:07:21;;;;;;;5.72;3.05;;;16.20;99.90;;;;;;5315029;27;20267;-78
2024/04/14 02:09:50;;;;;;;6.78;3.33;;;16.10;99.90;;;;;;5303962;27;20290;-78
2024/04/14 02:12:18;;;;;;;3.33;2.38;;;16.10;99.90;;;;;;5314246;27;20278;-79
2024/04/14 02:14:44;;;;;;;8.00;3.00;;;16.00;99.90;;;;;;5316120;26;20286;-78
2024/04/14 02:17:16;;;;;;;4.72;2.45;;;15.90;99.90;;;;;;5315151;27;20607;-77
2024/04/14 02:19:42;;;;;;;6.18;2.88;;;15.90;99.90;;;;;;5302776;27;20245;-80
2024/04/14 02:22:10;;;;;;;4.38;3.00;;;15.90;99.90;;;;;;5310954;27;20901;-79
2024/04/14 02:24:36;;;;;;;5.38;2.72;;;15.80;99.90;;;;;;5305042;27;20294;-77
2024/04/14 02:27:05;;;;;;;8.07;2.53;;;15.80;99.90;;;;;;5309646;27;20252;-77
2024/04/14 02:29:31;;;;;;;6.70;2.60;;;15.80;99.90;;;;;;5308401;26;20244;-77
2024/04/14 02:32:00;;;;;;;7.10;2.60;;;15.70;99.90;;;;;;5307723;26;20291;-79
2024/04/14 02:34:29;;;;;;;5.15;2.78;;;15.60;99.90;;;;;;5307247;26;20240;-80
2024/04/14 02:36:57;;;;;;;4.38;2.45;;;15.50;99.90;;;;;;5313087;26;20252;-79
2024/04/14 02:39:23;;;;;;;5.15;2.67;;;15.50;99.90;;;;;;5303985;26;20245;-79
2024/04/14 02:41:52;;;;;;;8.27;2.78;;;15.40;99.90;;;;;;5304606;26;20304;-78
2024/04/14 02:44:18;;;;;;;5.32;2.67;;;15.30;99.90;;;;;;5305536;26;20265;-79
2024/04/14 02:46:47;;;;;;;4.00;2.50;;;15.30;99.90;;;;;;5308468;27;20319;-78
2024/04/14 02:49:12;;;;;;;5.32;2.65;;;15.30;99.90;;;;;;5308059;26;20291;-78
2024/04/14 02:51:44;;;;;;;3.00;2.22;;;15.20;99.90;;;;;;5310330;26;20237;-79
2024/04/14 02:54:10;;;;;;;5.78;2.67;;;15.20;99.90;;;;;;5309957;26;20248;-77
2024/04/14 02:56:39;;;;;;;4.68;2.50;;;15.20;99.90;;;;;;5311520;26;20303;-79
2024/04/14 02:59:05;;;;;;;5.47;2.40;;;15.20;99.90;;;;;;5314662;27;20251;-78
2024/04/14 03:01:33;;;;;;;4.60;2.50;;;15.20;99.90;;;;;;5309644;26;20298;-79
2024/04/14 03:04:02;;;;;;;3.97;2.40;;;15.20;1.00;;;;;;5306689;27;20249;-78
2024/04/14 03:06:28;;;;;;;5.95;2.58;;;15.20;1.00;;;;;;5307863;27;20730;-80
2024/04/14 03:08:59;;;;;;;5.20;2.60;;;15.20;1.00;;;;;;5310716;27;20629;-79
2024/04/14 03:11:25;;;;;;;5.25;2.65;;;15.10;1.00;;;;;;5310069;26;20300;-79
2024/04/14 03:13:54;;;;;;;4.22;2.63;;;15.10;1.00;;;;;;5311140;26;20333;-80
2024/04/14 03:16:20;;;;;;;3.17;2.60;;;15.10;1.00;;;;;;5312801;27;20309;-80
2024/04/14 03:18:49;;;;;;;5.05;2.67;;;15.00;1.00;;;;;;5308950;26;20253;-80
2024/04/14 03:21:15;;;;;;;4.35;2.75;;;15.00;1.00;;;;;;5313824;26;20244;-80
2024/04/14 03:23:44;;;;;;;5.32;2.42;;;15.00;1.00;;;;;;5305959;26;20347;-80
2024/04/14 03:26:13;;;;;;;5.70;2.60;;;15.00;1.00;;;;;;5304647;27;20247;-80
2024/04/14 03:28:42;;;;;;;6.22;2.88;;;15.00;1.00;;;;;;5313017;26;20243;-79
2024/04/14 03:31:08;;;;;;;5.05;3.17;;;15.00;1.00;;;;;;5304301;27;20259;-80
2024/04/14 03:33:37;;;;;;;8.35;2.90;;;15.00;1.00;;;;;;5296760;26;20240;-80
2024/04/14 03:36:05;;;;;;;4.15;2.47;;;15.00;1.00;;;;;;5310691;26;20622;-79
2024/04/14 03:38:34;;;;;;;5.75;3.05;;;15.00;1.00;;;;;;5304968;27;20286;-82
2024/04/14 03:41:03;;;;;;;4.65;2.80;;;15.00;1.00;;;;;;5308182;27;20240;-78
2024/04/14 03:43:34;;;;;;;5.63;3.22;;;15.00;1.00;;;;;;5306986;26;20239;-79
2024/04/14 03:46:02;;;;;;;4.72;2.88;;;15.00;1.00;;;;;;5305295;27;20244;-79
2024/04/14 03:48:31;;;;;;;7.00;2.47;;;15.00;1.00;;;;;;5308053;26;20251;-78
2024/04/14 03:51:00;;;;;;;8.68;3.15;;;15.00;1.00;;;;;;5306618;27;20251;-81
2024/04/14 03:53:26;;;;;;;6.07;2.70;;;15.00;1.00;;;;;;5308852;26;20298;-80
2024/04/14 03:55:55;;;;;;;6.32;2.83;;;15.00;1.00;;;;;;5310419;26;20652;-79
2024/04/14 03:58:21;;;;;;;7.25;2.47;;;15.00;1.00;;;;;;5315016;26;20295;-78
2024/04/14 04:00:52;;;;;;;4.97;2.53;;;15.00;1.00;;;;;;5305340;27;20256;-78
2024/04/14 04:03:18;;;;;;;3.40;2.55;;;15.00;1.00;;;;;;5295649;27;20285;-76
2024/04/14 04:05:55;;;;;;;7.78;2.90;;;15.00;1.00;;;;;;5312326;27;20596;-78
2024/04/14 04:08:22;;;;;;;7.32;2.95;;;15.00;1.00;;;;;;5304487;26;20277;-77
2024/04/14 04:11:00;;;;;;;6.53;2.90;;;14.90;1.00;;;;;;5309248;26;20633;-79
2024/04/14 04:13:26;;;;;;;7.30;2.80;;;15.00;1.00;;;;;;5309647;27;20255;-79
2024/04/14 04:16:03;;;;;;;4.72;2.92;;;14.90;1.00;;;;;;5310024;26;20247;-77
2024/04/14 04:18:30;;;;;;;9.25;3.03;;;14.90;1.00;;;;;;5306538;27;20375;-78
2024/04/14 04:20:59;;;;;;;5.68;3.00;;;14.90;1.00;;;;;;5309323;27;20244;-79
2024/04/14 04:23:26;;;;;;;6.68;3.13;;;14.90;1.00;;;;;;5306404;27;20290;-78
2024/04/14 04:25:55;;;;;;;6.10;3.05;;;14.90;1.00;;;;;;5309181;27;20251;-76
2024/04/14 04:28:21;;;;;;;6.50;2.92;;;14.90;1.00;;;;;;5312604;26;20843;-78
2024/04/14 04:30:50;;;;;;;5.32;3.05;;;14.80;1.00;;;;;;5313461;27;20244;-78
2024/04/14 04:33:19;;;;;;;5.45;2.92;;;14.80;1.00;;;;;;5307298;26;20243;-81
2024/04/14 04:35:57;;;;;;;9.87;3.20;;;14.80;1.00;;;;;;5306319;27;20268;-78
2024/04/14 04:38:24;;;;;;;6.97;3.05;;;14.80;1.00;;;;;;5295426;27;20259;-79
2024/04/14 04:40:53;;;;;;;10.00;3.75;;;14.80;1.00;;;;;;5294749;26;20363;-78
2024/04/14 04:43:20;;;;;;;6.63;3.25;;;14.80;1.00;;;;;;5303218;26;20706;-77
2024/04/14 04:45:48;;;;;;;6.53;3.30;;;14.80;1.00;;;;;;5303032;27;20255;-79
2024/04/14 04:48:14;;;;;;;7.05;3.63;;;14.80;1.00;;;;;;5309810;27;20259;-78
2024/04/14 04:50:47;;;;;;;8.93;3.28;;;14.80;1.00;;;;;;5304283;26;20281;-79
2024/04/14 04:53:14;;;;;;;7.00;3.03;;;14.80;1.00;;;;;;5310298;26;20290;-79
2024/04/14 04:55:44;;;;;;;8.00;3.10;;;14.80;1.00;;;;;;5306591;26;20247;-77
2024/04/14 04:58:10;;;;;;;9.13;3.60;;;14.80;1.00;;;;;;5312381;26;20247;-80
2024/04/14 05:00:38;;;;;;;6.88;3.58;;;14.70;1.00;;;;;;5299420;26;20670;-76
2024/04/14 05:03:05;;;;;;;6.75;4.38;;;14.40;1.00;;;;;;5310295;27;20251;-77
2024/04/14 05:05:33;;;;;;;7.38;4.10;;;14.70;1.00;;;;;;5308632;27;20244;-79
2024/04/14 05:08:02;;;;;;;11.70;4.57;;;14.70;1.00;;;;;;5312928;27;20248;-78
2024/04/14 05:10:30;;;;;;;9.93;4.30;;;14.60;1.00;;;;;;5307893;27;20773;-78
2024/04/14 05:12:56;;;;;;;7.40;3.20;;;14.60;1.00;;;;;;5311804;27;20820;-76
2024/04/14 05:15:25;;;;;;;10.55;3.42;;;14.40;1.00;;;;;;5308926;27;20382;-80
2024/04/14 05:17:51;;;;;;;7.47;2.87;;;14.40;1.00;;;;;;5316136;27;20247;-78
2024/04/14 05:20:20;;;;;;;4.53;2.27;;;14.40;1.00;;;;;;5315314;27;20290;-77
2024/04/14 05:22:46;;;;;;;5.53;2.33;;;14.40;1.00;;;;;;5311039;26;20286;-80
2024/04/14 05:25:17;;;;;;;6.35;2.50;;;14.30;1.00;;;;;;5289029;27;20383;-78
2024/04/14 05:27:43;;;;;;;7.10;2.33;;;14.30;99.90;;;;;;5297932;27;20261;-77
2024/04/14 05:30:12;;;;;;;7.07;2.17;;;14.40;99.90;;;;;;5296528;26;20370;-78
2024/04/14 05:32:38;;;;;;;5.90;2.20;;;14.30;99.90;;;;;;5299961;26;20358;-78
2024/04/14 05:35:07;;;;;;;6.63;2.30;;;14.30;99.90;;;;;;5309645;26;20259;-77
2024/04/14 05:37:33;;;;;;;9.20;1.93;;;14.80;99.90;;;;;;5301422;26;20303;-79
2024/04/14 05:40:02;;;;;;;4.30;1.80;;;15.10;99.90;;;;;;5311960;27;20290;-77
2024/04/14 05:42:31;;;;;;;4.80;1.70;;;14.90;99.90;;;;;;5308133;27;20247;-78
2024/04/14 05:44:59;;;;;;;5.03;1.58;;;15.10;99.90;;;;;;5313825;26;20290;-78
2024/04/14 05:47:25;;;;;;;2.95;1.38;;;15.10;99.90;;;;;;5316544;27;20251;-79
2024/04/14 05:49:55;;;;;;;2.83;1.40;;;14.90;99.90;;;;;;5311306;26;20301;-79
2024/04/14 05:52:21;;;;;;;4.50;2.05;;;14.80;99.90;;;;;;5318811;27;20286;-81
2024/04/14 05:54:50;;;;;;;4.30;1.55;;;14.70;99.90;;;;;;5304499;27;20256;-80
2024/04/14 05:57:16;;;;;;;4.70;1.40;;;15.00;99.90;;;;;;5314855;27;20264;-79
2024/04/14 05:59:47;;;;;;;1.88;1.40;;;15.00;99.90;;;;;;5319490;27;20749;-81
2024/04/14 06:02:15;;;;;;;5.25;1.40;;;15.10;99.90;;;;;;5309284;27;20286;-80
2024/04/14 06:04:44;;;;;;;1.70;1.20;;;15.50;99.90;;;;;;5320237;27;20299;-78
2024/04/14 06:07:09;;;;;;;2.85;1.25;;;15.50;99.90;;;;;;5316142;27;20255;-82
2024/04/14 06:09:38;;;;;;;6.13;1.30;;;15.10;99.90;;;;;;5314765;27;20296;-81
2024/04/14 06:12:05;;;;;;;4.32;1.48;;;14.90;99.90;;;;;;5317630;26;20286;-82
2024/04/14 06:14:34;;;;;;;3.28;1.50;;;15.00;99.90;;;;;;5319308;27;20251;-77
2024/04/14 06:17:02;;;;;;;3.10;1.33;;;15.10;99.90;;;;;;5315755;27;20785;-78
2024/04/14 06:19:31;;;;;;;4.38;1.77;;;15.00;99.90;;;;;;5303892;26;20310;-80
2024/04/14 06:21:57;;;;;;;3.00;1.45;;;14.80;99.90;;;;;;5315658;26;20248;-79
2024/04/14 06:24:26;;;;;;;4.57;1.30;;;14.50;99.90;;;;;;5318430;27;20274;-77
2024/04/14 06:26:51;;;;;;;4.63;1.52;;;14.60;99.90;;;;;;5296938;26;20580;-77
2024/04/14 06:29:20;;;;;;;4.10;1.50;;;14.90;99.90;;;;;;5304960;27;20260;-79
2024/04/14 06:31:46;;;;;;;6.93;1.55;;;14.80;99.90;;;;;;5312626;27;20291;-81
2024/04/14 06:34:18;;;;;;;6.50;1.80;;;14.80;99.90;;;;;;5305831;27;20255;-80
2024/04/14 06:36:43;;;;;;;4.22;1.20;;;15.60;99.90;;;;;;5305945;26;20290;-78
2024/04/14 06:39:12;;;;;;;3.35;1.30;;;15.20;99.90;;;;;;5311227;26;20260;-78
2024/04/14 06:41:38;;;;;;;4.85;1.17;;;15.90;99.90;;;;;;5310803;27;20346;-77
2024/04/14 06:44:07;;;;;;;2.40;1.30;;;16.30;51.90;;;;;;5301434;26;20252;-79
2024/04/14 06:46:33;;;;;;;6.95;1.70;;;16.20;1.00;;;;;;5319191;26;20331;-79
2024/04/14 06:49:02;;;;;;;6.55;1.27;;;15.90;1.00;;;;;;5304675;27;20339;-78
2024/04/14 06:51:30;;;;;;;5.00;1.58;;;16.20;1.00;;;;;;5304983;27;20244;-78
2024/04/14 06:53:59;;;;;;;7.03;1.60;;;16.00;1.00;;;;;;5303722;26;20253;-79
2024/04/14 06:56:25;;;;;;;7.72;1.65;;;16.10;1.00;;;;;;5310052;26;20255;-77
2024/04/14 06:58:54;;;;;;;7.00;1.70;;;16.70;1.00;;;;;;5310674;27;20244;-81
2024/04/14 07:01:20;;;;;;;4.68;1.15;;;16.40;1.00;;;;;;5302962;27;20303;-80
2024/04/14 07:03:48;;;;;;;5.07;1.45;;;16.70;1.00;;;;;;5315464;26;20284;-79
2024/04/14 07:06:14;;;;;;;5.13;1.42;;;16.50;1.00;;;;;;5308860;27;20757;-78
2024/04/14 07:08:46;;;;;;;5.85;1.58;;;16.20;1.00;;;;;;5310945;27;20293;-81
2024/04/14 07:11:12;;;;;;;5.63;1.77;;;15.90;1.00;;;;;;5308985;26;20263;-80
2024/04/14 07:13:40;;;;;;;4.65;1.25;;;15.70;1.00;;;;;;5315443;27;20248;-81
2024/04/14 07:16:07;;;;;;;5.40;1.40;;;16.20;1.00;;;;;;5308520;26;20668;-80
2024/04/14 07:18:35;;;;;;;3.85;1.50;;;16.20;1.00;;;;;;5309132;27;20255;-79
2024/04/14 07:21:02;;;;;;;6.72;1.65;;;16.10;1.00;;;;;;5311443;27;20252;-78
2024/04/14 07:23:31;;;;;;;4.63;1.48;;;16.00;1.00;;;;;;5312181;27;20244;-77
2024/04/14 07:26:00;;;;;;;4.07;1.20;;;15.80;1.00;;;;;;5313419;27;20259;-80
2024/04/14 07:28:29;;;;;;;4.47;1.48;;;15.30;1.00;;;;;;5316711;27;20264;-79
2024/04/14 07:30:55;;;;;;;3.63;1.25;;;15.80;1.00;;;;;;5315592;27;20255;-80
2024/04/14 07:33:24;;;;;;;4.53;1.73;;;15.80;1.00;;;;;;5309007;27;20247;-77
2024/04/14 07:35:50;;;;;;;4.90;1.20;;;16.20;1.00;;;;;;5313493;27;20251;-79
2024/04/14 07:38:19;;;;;;;7.95;1.35;;;16.40;1.00;;;;;;5295240;27;20265;-79
2024/04/14 07:40:45;;;;;;;2.33;1.27;;;16.90;1.00;;;;;;5301442;27;20279;-79
2024/04/14 07:43:16;;;;;;;6.70;1.20;;;17.50;1.00;;;;;;5299549;27;20255;-80
2024/04/14 07:45:42;;;;;;;2.47;1.40;;;16.60;1.00;;;;;;5312873;27;20298;-78
2024/04/14 07:48:11;;;;;;;3.20;1.33;;;16.50;1.00;;;;;;5307588;27;20419;-79
2024/04/14 07:50:42;;;;;;;4.82;1.30;;;15.60;1.00;;;;;;5306759;27;20740;-79
2024/04/14 07:53:11;;;;;;;4.00;1.33;;;15.60;1.00;;;;;;5310254;26;20247;-78
2024/04/14 07:55:37;;;;;;;2.75;1.10;;;15.30;1.00;;;;;;5309680;27;20274;-80
2024/04/14 07:58:06;;;;;;;6.25;1.65;;;15.20;1.00;;;;;;5312074;27;20276;-78
2024/04/14 08:00:35;;;;;;;5.82;1.73;;;15.10;1.00;;;;;;5304829;27;20252;-76
2024/04/14 08:03:04;;;;;;;4.80;1.20;;;15.20;1.00;;;;;;5312362;27;20243;-79
2024/04/14 08:05:30;;;;;;;6.97;1.60;;;15.30;1.00;;;;;;5307179;27;20287;-79
2024/04/14 08:07:58;;;;;;;5.05;1.20;;;15.60;1.00;;;;;;5310363;27;20308;-81
2024/04/14 08:10:24;;;;;;;3.45;1.13;;;15.90;1.00;;;;;;5315953;27;20255;-79
2024/04/14 08:12:53;;;;;;;3.33;1.05;;;16.00;1.00;;;;;;5314541;26;20297;-81
2024/04/14 08:15:19;;;;;;;6.38;1.05;;;15.60;1.00;;;;;;5307843;27;20248;-80
2024/04/14 08:17:50;;;;;;;4.55;1.50;;;15.80;1.00;;;;;;5312542;27;20309;-78
2024/04/14 08:20:16;;;;;;;3.53;1.30;;;16.10;1.00;;;;;;5313195;27;20252;-78
2024/04/14 08:22:45;;;;;;;5.65;1.42;;;16.00;1.00;;;;;;5312178;27;20251;-78
2024/04/14 08:25:11;;;;;;;5.18;1.40;;;15.60;1.00;;;;;;5309543;26;20251;-80
2024/04/14 08:27:40;;;;;;;3.47;1.27;;;15.80;1.00;;;;;;5318187;27;20298;-78
2024/04/14 08:30:07;;;;;;;3.78;1.40;;;16.10;1.00;;;;;;5311714;27;20337;-77
2024/04/14 08:32:36;;;;;;;3.42;1.50;;;16.00;1.00;;;;;;5318877;27;20303;-80
2024/04/14 08:35:06;;;;;;;3.22;0.98;;;15.90;1.00;;;;;;5308005;27;20244;-79
2024/04/14 08:37:34;;;;;;;5.63;1.20;;;15.90;1.00;;;;;;5301894;27;20293;-80
2024/04/14 08:40:00;;;;;;;3.90;1.20;;;15.80;1.00;;;;;;5314598;27;20286;-78
2024/04/14 08:42:32;;;;;;;4.32;1.25;;;15.80;1.00;;;;;;5299386;27;20248;-79
2024/04/14 08:45:00;;;;;;;4.28;1.27;;;15.90;1.00;;;;;;5314137;26;20342;-78
2024/04/14 08:47:30;;;;;;;3.88;1.13;;;15.90;1.00;;;;;;5312070;27;20259;-79
2024/04/14 08:49:58;;;;;;;4.35;1.20;;;15.90;1.00;;;;;;5303912;27;20252;-79
2024/04/14 08:52:32;;;;;;;2.22;0.90;;;15.60;99.90;;;;;;5311033;27;20259;-80
2024/04/14 08:54:57;;;;;;;5.00;1.02;;;15.60;99.90;;;;;;5315386;26;20749;-80
2024/04/14 08:57:27;;;;;;;1.35;0.70;;;15.80;99.90;;;;;;5316937;27;20298;-80
2024/04/14 08:59:57;;;;;;;2.70;1.15;;;15.90;99.90;;;;;;5313835;27;20799;-80
2024/04/14 09:02:27;;;;;;;2.15;1.05;;;15.80;99.90;;;;;;5306500;27;20336;-79
2024/04/14 09:04:54;;;;;;;2.33;0.80;;;16.00;99.90;;;;;;5308260;27;20248;-78
2024/04/14 09:07:22;;;;;;;3.13;0.85;;;15.40;99.90;;;;;;5315151;27;20259;-79
2024/04/14 09:09:51;;;;;;;3.00;0.80;;;15.20;99.90;;;;;;5314908;27;20240;-80
2024/04/14 09:12:22;;;;;;;8.43;1.02;;;15.70;99.90;;;;;;5316158;27;20259;-79
2024/04/14 09:14:48;;;;;;;2.72;0.70;;;16.10;99.90;;;;;;5316523;27;20251;-79
2024/04/14 09:17:17;;;;;;;2.28;1.20;;;16.20;99.90;;;;;;5317255;27;20362;-80
2024/04/14 09:19:44;;;;;;;4.25;1.02;;;16.50;99.90;;;;;;5307675;27;20284;-79
2024/04/14 09:22:16;;;;;;;5.72;0.90;;;16.50;99.90;;;;;;5306500;27;20267;-80
2024/04/14 09:24:42;;;;;;;2.95;0.90;;;16.50;99.90;;;;;;5317933;27;20290;-82
2024/04/14 09:27:17;;;;;;;3.97;0.88;;;16.40;99.90;;;;;;5318380;27;20298;-80
2024/04/14 09:29:43;;;;;;;4.30;1.23;;;17.00;99.90;;;;;;5316251;27;20259;-81
2024/04/14 09:32:11;;;;;;;4.15;1.13;;;17.10;99.90;;;;;;5306825;27;20794;-81
2024/04/14 09:34:38;;;;;;;3.03;0.68;;;17.10;99.90;;;;;;5316942;27;20270;-82
2024/04/14 09:37:12;;;;;;;4.43;0.93;;;17.20;99.90;;;;;;5318157;27;20259;-80
2024/04/14 09:39:38;;;;;;;4.10;0.95;;;16.50;99.90;;;;;;5308775;27;20850;-83
2024/04/14 09:42:07;;;;;;;5.72;1.40;;;16.80;99.90;;;;;;5316855;27;20761;-80
2024/04/14 09:44:38;;;;;;;2.67;1.13;;;16.50;99.90;;;;;;5311234;27;20695;-81
2024/04/14 09:47:07;;;;;;;4.45;1.20;;;16.70;99.90;;;;;;5319457;27;20252;-81
2024/04/14 09:49:36;;;;;;;3.63;1.02;;;16.40;99.90;;;;;;5306953;26;20283;-80
2024/04/14 09:52:06;;;;;;;3.78;1.00;;;16.60;99.90;;;;;;5320954;26;20246;-83
2024/04/14 09:54:32;;;;;;;4.15;1.00;;;16.00;99.90;;;;;;5310314;26;20248;-83
2024/04/14 09:57:03;;;;;;;3.92;1.27;;;16.50;99.90;;;;;;5318366;27;20659;-82
2024/04/14 09:59:29;;;;;;;2.60;0.95;;;16.90;99.90;;;;;;5302996;27;20278;-79
2024/04/14 10:02:02;;;;;;;6.00;1.05;;;17.10;99.90;;;;;;5316565;27;20774;-81
2024/04/14 10:04:28;;;;;;;2.92;1.10;;;16.80;99.90;;;;;;5312855;27;20279;-79
2024/04/14 10:06:57;;;;;;;1.90;0.90;;;16.50;99.90;;;;;;5318530;27;20374;-81
2024/04/14 10:09:26;;;;;;;2.75;1.02;;;17.20;99.90;;;;;;5304965;27;20586;-80
2024/04/14 10:11:55;;;;;;;3.03;1.00;;;17.50;99.90;;;;;;5313647;27;20247;-80
2024/04/14 10:14:26;;;;;;;4.70;1.10;;;17.60;99.90;;;;;;5315814;26;20293;-78
2024/04/14 10:17:04;;;;;;;2.17;0.90;;;17.30;95.50;;;;;;5317172;27;20259;-80
2024/04/14 10:19:34;;;;;;;5.20;1.10;;;17.80;91.40;;;;;;5312601;27;20750;-79
2024/04/14 10:22:03;;;;;;;3.40;1.65;;;18.00;94.80;;;;;;5311594;27;20251;-79
2024/04/14 10:24:32;;;;;;;6.18;1.30;;;17.70;77.70;;;;;;5305265;27;20363;-79
2024/04/14 10:27:10;;;;;;;4.97;1.10;;;17.80;97.10;;;;;;5318515;27;20259;-79
2024/04/14 10:29:36;;;;;;;5.93;1.67;;;17.80;79.60;;;;;;5310296;27;20252;-79
2024/04/14 10:32:10;;;;;;;2.08;0.90;;;17.90;91.90;;;;;;5317417;27;20760;-80
2024/04/14 10:34:36;;;;;;;4.60;1.35;;;17.90;99.90;;;;;;5315182;27;20293;-80
2024/04/14 10:37:05;;;;;;;1.80;0.80;;;17.50;75.10;;;;;;5309361;26;20244;-80
2024/04/14 10:39:31;;;;;;;2.53;0.80;;;17.40;66.00;;;;;;5317816;27;20248;-79
2024/04/14 10:42:01;;;;;;;4.80;0.93;;;16.90;1.00;;;;;;5307721;27;20318;-79
2024/04/14 10:44:27;;;;;;;3.15;0.98;;;16.70;1.00;;;;;;5316483;27;20252;-78
2024/04/14 10:46:55;;;;;;;5.60;1.13;;;16.50;1.00;;;;;;5312222;27;20361;-80
2024/04/14 10:49:25;;;;;;;2.55;0.90;;;16.70;1.00;;;;;;5307163;27;20286;-79
2024/04/14 10:51:53;;;;;;;2.55;0.90;;;16.50;1.00;;;;;;5303164;27;20354;-80
2024/04/14 10:54:19;;;;;;;4.00;0.95;;;16.20;1.00;;;;;;5311031;27;20249;-78
2024/04/14 10:56:49;;;;;;;3.03;1.25;;;16.10;1.00;;;;;;5313346;27;20657;-77
2024/04/14 10:59:15;;;;;;;5.63;1.35;;;16.50;1.00;;;;;;5312369;27;20310;-78
2024/04/14 11:01:44;;;;;;;3.00;0.80;;;16.70;1.00;;;;;;5308547;27;20734;-79
2024/04/14 11:04:14;;;;;;;3.33;0.90;;;17.30;1.00;;;;;;5315449;27;20248;-79
2024/04/14 11:06:46;;;;;;;1.98;0.85;;;17.30;1.00;;;;;;5307310;27;20319;-78
2024/04/14 11:09:13;;;;;;;2.00;0.93;;;17.70;1.00;;;;;;5314130;27;20256;-78
2024/04/14 11:11:44;;;;;;;3.85;1.15;;;18.10;1.00;;;;;;5309060;27;20287;-79
2024/04/14 11:14:10;;;;;;;3.42;0.70;;;18.80;1.00;;;;;;5316675;27;20291;-81
2024/04/14 11:16:40;;;;;;;2.80;0.80;;;18.70;1.00;;;;;;5314071;26;20268;-81
2024/04/14 11:19:06;;;;;;;5.45;1.27;;;18.50;1.00;;;;;;5318125;27;20295;-81
2024/04/14 11:21:34;;;;;;;2.20;0.90;;;18.60;1.00;;;;;;5312976;27;20301;-81
2024/04/14 11:24:03;;;;;;;4.90;1.02;;;18.20;1.00;;;;;;5305423;27;20247;-80
2024/04/14 11:26:32;;;;;;;5.50;1.40;;;17.80;1.00;;;;;;5313522;27;20303;-80
2024/04/14 11:28:58;;;;;;;3.17;1.38;;;17.90;1.00;;;;;;5312384;27;20347;-82
2024/04/14 11:31:27;;;;;;;3.38;1.13;;;17.70;1.00;;;;;;5311468;27;20298;-80
2024/04/14 11:33:53;;;;;;;3.75;1.10;;;18.00;1.00;;;;;;5316554;27;20247;-79
2024/04/14 11:36:22;;;;;;;5.97;1.00;;;18.10;1.00;;;;;;5305367;26;20300;-80
2024/04/14 11:38:49;;;;;;;6.97;1.85;;;17.60;1.00;;;;;;5316649;27;20334;-81
2024/04/14 11:41:20;;;;;;;5.55;1.10;;;17.80;1.00;;;;;;5313034;27;20248;-80
2024/04/14 11:43:46;;;;;;;4.70;1.20;;;17.70;1.00;;;;;;5315899;27;20286;-80
2024/04/14 11:46:16;;;;;;;3.72;0.98;;;17.20;1.00;;;;;;5317652;27;20290;-81
2024/04/14 11:48:43;;;;;;;4.22;1.55;;;17.60;1.00;;;;;;5314101;27;20902;-80
2024/04/14 11:51:12;;;;;;;4.50;1.00;;;17.60;1.00;;;;;;5297633;27;20320;-79
2024/04/14 11:53:38;;;;;;;3.50;1.27;;;17.70;1.00;;;;;;5306804;27;20255;-78
2024/04/14 11:56:07;;;;;;;4.38;1.33;;;17.60;1.00;;;;;;5312999;27;20255;-80
2024/04/14 11:58:37;;;;;;;3.95;1.40;;;17.60;1.00;;;;;;5299712;27;20252;-81
2024/04/14 12:01:06;;;;;;;3.05;1.50;;;17.90;1.00;;;;;;5302186;27;20290;-81
2024/04/14 12:03:32;;;;;;;6.95;0.95;;;18.30;1.00;;;;;;5303012;26;20253;-80
2024/04/14 12:06:01;;;;;;;3.22;1.23;;;18.00;1.00;;;;;;5312017;27;20285;-81
2024/04/14 12:08:27;;;;;;;4.82;1.40;;;18.20;1.00;;;;;;5312246;27;20255;-77
2024/04/14 12:10:56;;;;;;;7.53;1.10;;;18.30;1.00;;;;;;5315874;27;20389;-79
2024/04/14 12:13:22;;;;;;;2.78;0.93;;;18.30;1.00;;;;;;5305213;27;20298;-79
2024/04/14 12:15:53;;;;;;;4.65;1.20;;;18.00;1.00;;;;;;5312417;27;20256;-79
2024/04/14 12:18:19;;;;;;;4.32;0.77;;;17.40;1.00;;;;;;5309530;27;20259;-79
2024/04/14 12:20:48;;;;;;;4.22;0.98;;;17.70;1.00;;;;;;5308574;27;20259;-79
2024/04/14 12:23:14;;;;;;;1.85;0.70;;;17.70;1.00;;;;;;5301092;27;20255;-78
2024/04/14 12:25:43;;;;;;;4.50;0.90;;;17.70;1.00;;;;;;5310285;27;20286;-79
2024/04/14 12:28:09;;;;;;;3.50;0.93;;;17.70;1.00;;;;;;5313146;27;20741;-80
2024/04/14 12:30:38;;;;;;;4.80;1.25;;;17.10;1.00;;;;;;5305631;27;20241;-78
2024/04/14 12:33:07;;;;;;;1.38;0.50;;;16.70;1.00;;;;;;5315837;26;20254;-80
2024/04/14 12:35:36;;;;;;;3.35;1.15;;;17.00;1.00;;;;;;5313897;27;20290;-81
2024/04/14 12:38:02;;;;;;;2.60;0.90;;;17.40;1.00;;;;;;5310460;27;20303;-81
2024/04/14 12:40:31;;;;;;;2.05;0.73;;;17.50;1.00;;;;;;5307742;27;20342;-77
2024/04/14 12:42:57;;;;;;;4.18;1.25;;;17.50;1.00;;;;;;5309415;27;20293;-79
2024/04/14 12:45:26;;;;;;;2.08;0.70;;;18.20;1.00;;;;;;5315093;27;20585;-79
2024/04/14 12:47:52;;;;;;;1.45;0.85;;;18.20;1.00;;;;;;5308459;27;20286;-80
2024/04/14 12:50:24;;;;;;;3.28;0.73;;;18.20;1.00;;;;;;5308255;27;20750;-81
2024/04/14 12:52:50;;;;;;;2.97;0.93;;;18.00;1.00;;;;;;5304372;27;20248;-80
2024/04/14 12:55:19;;;;;;;3.17;0.80;;;18.20;1.00;;;;;;5314760;27;20290;-79
2024/04/14 12:57:44;;;;;;;2.45;0.80;;;18.60;1.00;;;;;;5309158;27;20244;-83